createdAt,value
2018-06-28T00:02:23.583Z,1.60
2018-06-28T00:04:52.436Z,1.92
2018-06-28T00:07:21.273Z,1.70
2018-06-28T00:09:50.110Z,1.58
2018-06-28T00:12:18.963Z,1.60
2018-06-28T00:14:47.807Z,1.90
2018-06-28T00:17:16.656Z,1.60
2018-06-28T00:19:45.490Z,1.70
2018-06-28T00:22:14.329Z,1.58
2018-06-28T00:24:43.175Z,1.67
2018-06-28T00:27:12.015Z,1.70
2018-06-28T00:29:40.851Z,1.63
2018-06-28T00:32:09.699Z,1.60
2018-06-28T00:34:39.121Z,1.60
2018-06-28T00:37:07.983Z,1.80
2018-06-28T00:39:36.804Z,1.58
2018-06-28T00:42:05.650Z,1.60
2018-06-28T00:44:34.480Z,1.87
2018-06-28T00:47:03.328Z,1.60
2018-06-28T00:49:32.157Z,1.73
2018-06-28T00:52:01.747Z,1.80
2018-06-28T00:54:30.584Z,1.73
2018-06-28T00:56:59.416Z,1.73
2018-06-28T00:59:28.249Z,1.80
2018-06-28T01:01:57.089Z,1.57
2018-06-28T01:04:25.978Z,1.73
2018-06-28T01:06:54.806Z,1.80
2018-06-28T01:09:23.661Z,1.80
2018-06-28T01:11:52.498Z,1.63
2018-06-28T01:14:21.332Z,1.80
2018-06-28T01:16:50.170Z,1.70
2018-06-28T01:19:19.017Z,1.90
2018-06-28T01:21:47.854Z,1.70
2018-06-28T01:24:16.686Z,1.70
2018-06-28T01:26:45.525Z,1.60
2018-06-28T01:29:14.390Z,2.03
2018-06-28T01:31:43.229Z,1.77
2018-06-28T01:34:12.069Z,1.87
2018-06-28T01:36:41.658Z,2.00
2018-06-28T01:39:10.494Z,1.73
2018-06-28T01:41:39.338Z,1.90
2018-06-28T01:44:08.176Z,2.07
2018-06-28T01:46:37.019Z,1.83
2018-06-28T01:49:05.865Z,1.90
2018-06-28T01:51:34.695Z,1.87
2018-06-28T01:54:03.541Z,2.10
2018-06-28T01:56:32.380Z,1.87
2018-06-28T01:59:01.223Z,2.20
2018-06-28T02:01:30.073Z,2.08
2018-06-28T02:03:58.922Z,2.03
2018-06-28T02:06:27.779Z,2.28
2018-06-28T02:08:56.605Z,1.83
2018-06-28T02:11:25.442Z,2.20
2018-06-28T02:13:55.031Z,2.20
2018-06-28T02:16:24.609Z,2.27
2018-06-28T02:18:53.446Z,2.22
2018-06-28T02:21:22.292Z,2.10
2018-06-28T02:23:51.126Z,2.77
2018-06-28T02:26:19.975Z,2.00
2018-06-28T02:28:48.808Z,2.30
2018-06-28T02:31:17.654Z,2.40
2018-06-28T02:33:46.487Z,2.10
2018-06-28T02:36:15.323Z,1.97
2018-06-28T02:38:44.158Z,2.20
2018-06-28T02:41:12.997Z,2.10
2018-06-28T02:43:41.848Z,2.00
2018-06-28T02:46:10.686Z,2.10
2018-06-28T02:48:39.516Z,2.23
2018-06-28T02:51:08.351Z,2.07
2018-06-28T02:53:37.188Z,2.20
2018-06-28T02:56:06.776Z,2.10
2018-06-28T02:58:36.343Z,2.17
2018-06-28T03:01:05.181Z,2.20
2018-06-28T03:03:34.030Z,2.07
2018-06-28T03:06:02.908Z,2.27
2018-06-28T03:08:31.709Z,2.22
2018-06-28T03:11:00.546Z,2.30
2018-06-28T03:13:29.382Z,2.20
2018-06-28T03:15:58.221Z,2.00
2018-06-28T03:18:27.797Z,2.20
2018-06-28T03:20:57.379Z,2.27
2018-06-28T03:23:26.221Z,2.30
2018-06-28T03:25:55.070Z,2.40
2018-06-28T03:28:23.912Z,2.40
2018-06-28T03:30:52.822Z,2.40
2018-06-28T03:33:21.599Z,2.30
2018-06-28T03:35:50.449Z,2.40
2018-06-28T03:38:19.294Z,2.63
2018-06-28T03:40:48.135Z,2.77
2018-06-28T03:43:16.979Z,2.90
2018-06-28T03:45:45.813Z,3.20
2018-06-28T03:48:15.383Z,3.20
2018-06-28T03:50:44.228Z,3.40
2018-06-28T03:53:13.063Z,3.10
2018-06-28T03:55:41.904Z,3.20
2018-06-28T03:58:10.752Z,3.20
2018-06-28T04:00:39.598Z,3.13
2018-06-28T04:03:08.439Z,3.53
2018-06-28T04:05:37.287Z,3.30
2018-06-28T04:08:06.126Z,3.40
2018-06-28T04:10:34.985Z,3.60
2018-06-28T04:13:03.848Z,3.80
2018-06-28T04:15:32.670Z,3.53
2018-06-28T04:18:01.505Z,3.80
2018-06-28T04:20:31.084Z,3.37
2018-06-28T04:22:59.937Z,3.37
2018-06-28T04:25:28.770Z,3.53
2018-06-28T04:27:58.348Z,3.50
2018-06-28T04:30:27.194Z,4.25
2018-06-28T04:32:56.036Z,4.77
2018-06-28T04:35:24.874Z,3.50
2018-06-28T04:37:53.707Z,3.63
2018-06-28T04:40:22.538Z,4.17
2018-06-28T04:42:52.110Z,3.57
2018-06-28T04:45:20.949Z,3.97
2018-06-28T04:47:49.783Z,3.83
2018-06-28T04:50:18.611Z,4.10
2018-06-28T04:52:47.459Z,4.30
2018-06-28T04:55:16.295Z,4.18
2018-06-28T04:57:45.141Z,4.10
2018-06-28T05:00:13.987Z,3.93
2018-06-28T05:02:43.572Z,3.60
2018-06-28T05:05:12.427Z,4.40
2018-06-28T05:07:41.262Z,3.75
2018-06-28T05:10:10.847Z,3.90
2018-06-28T05:12:39.681Z,4.40
2018-06-28T05:15:08.584Z,3.43
2018-06-28T05:17:38.153Z,3.83
2018-06-28T05:20:06.995Z,3.63
2018-06-28T05:22:35.840Z,4.10
2018-06-28T05:25:04.686Z,4.03
2018-06-28T05:27:33.527Z,3.37
2018-06-28T05:30:02.363Z,4.10
2018-06-28T05:32:31.198Z,3.93
2018-06-28T05:35:00.119Z,3.20
2018-06-28T05:37:28.886Z,3.20
2018-06-28T05:39:58.464Z,2.93
2018-06-28T05:42:27.310Z,3.35
2018-06-28T05:44:56.139Z,3.03
2018-06-28T05:47:24.982Z,2.53
2018-06-28T05:49:53.824Z,2.80
2018-06-28T05:52:22.663Z,2.90
2018-06-28T05:54:51.513Z,3.00
2018-06-28T05:57:21.150Z,2.50
2018-06-28T05:59:49.939Z,3.03
2018-06-28T06:02:19.521Z,2.60
2018-06-28T06:04:48.360Z,2.70
2018-06-28T06:07:17.204Z,2.80
2018-06-28T06:09:46.042Z,3.37
2018-06-28T06:12:14.884Z,2.83
2018-06-28T06:14:44.488Z,2.80
2018-06-28T06:17:13.328Z,2.90
2018-06-28T06:19:42.150Z,3.07
2018-06-28T06:22:11.002Z,3.10
2018-06-28T06:24:39.840Z,3.27
2018-06-28T06:27:08.682Z,3.10
2018-06-28T06:29:37.524Z,3.33
2018-06-28T06:32:06.359Z,2.97
2018-06-28T06:34:35.191Z,2.80
2018-06-28T06:37:04.056Z,2.93
2018-06-28T06:39:32.880Z,3.10
2018-06-28T06:42:01.723Z,3.20
2018-06-28T06:44:30.553Z,3.20
2018-06-28T06:46:59.410Z,3.10
2018-06-28T06:49:28.242Z,3.10
2018-06-28T06:51:57.827Z,3.20
2018-06-28T06:54:26.671Z,2.95
2018-06-28T06:56:55.522Z,2.60
2018-06-28T06:59:25.120Z,2.73
2018-06-28T07:01:53.926Z,3.00
2018-06-28T07:04:22.833Z,2.83
2018-06-28T07:06:51.604Z,2.50
2018-06-28T07:09:20.444Z,3.00
2018-06-28T07:11:49.276Z,2.77
2018-06-28T07:14:18.848Z,2.67
2018-06-28T07:16:47.691Z,2.90
2018-06-28T07:19:16.525Z,2.77
2018-06-28T07:21:45.360Z,3.10
2018-06-28T07:24:14.944Z,2.97
2018-06-28T07:26:43.775Z,2.97
2018-06-28T07:29:12.612Z,3.00
2018-06-28T07:31:41.454Z,3.00
2018-06-28T07:34:10.307Z,3.17
2018-06-28T07:36:39.798Z,2.73
2018-06-28T07:39:09.299Z,3.00
2018-06-28T07:41:38.139Z,3.03
2018-06-28T07:44:06.985Z,2.95
2018-06-28T07:46:35.836Z,2.53
2018-06-28T07:49:04.719Z,2.80
2018-06-28T07:51:34.262Z,2.87
2018-06-28T07:54:03.097Z,2.67
2018-06-28T07:56:31.941Z,2.70
2018-06-28T07:59:00.783Z,2.70
2018-06-28T08:01:29.628Z,2.80
2018-06-28T08:03:59.218Z,2.80
2018-06-28T08:06:28.066Z,2.58
2018-06-28T08:08:56.911Z,2.65
2018-06-28T08:11:26.344Z,3.50
2018-06-28T08:13:55.192Z,3.25
2018-06-28T08:16:24.034Z,2.65
2018-06-28T08:18:52.885Z,3.12
2018-06-28T08:21:21.723Z,2.80
2018-06-28T08:23:50.554Z,2.65
2018-06-28T08:26:19.397Z,2.72
2018-06-28T08:28:48.233Z,2.50
2018-06-28T08:31:17.075Z,2.50
2018-06-28T08:33:45.914Z,3.00
2018-06-28T08:36:15.491Z,2.47
2018-06-28T08:38:44.330Z,3.15
2018-06-28T08:41:13.161Z,2.80
2018-06-28T08:43:42.002Z,3.03
2018-06-28T08:46:11.575Z,3.37
2018-06-28T08:48:40.405Z,3.00
2018-06-28T08:51:09.250Z,2.83
2018-06-28T08:53:38.098Z,2.85
2018-06-28T08:56:06.938Z,2.92
2018-06-28T08:58:35.785Z,2.40
2018-06-28T09:01:04.619Z,2.80
2018-06-28T09:03:33.455Z,3.10
2018-06-28T09:06:02.294Z,2.87
2018-06-28T09:08:31.723Z,2.30
2018-06-28T09:11:01.296Z,2.80
2018-06-28T09:13:30.127Z,2.92
2018-06-28T09:15:59.715Z,2.50
2018-06-28T09:18:28.558Z,2.65
2018-06-28T09:20:57.409Z,2.42
2018-06-28T09:23:26.982Z,2.70
2018-06-28T09:25:56.562Z,2.50
2018-06-28T09:28:25.391Z,2.60
2018-06-28T09:30:54.247Z,2.40
2018-06-28T09:33:23.081Z,2.33
2018-06-28T09:35:51.958Z,2.20
2018-06-28T09:38:20.772Z,2.30
2018-06-28T09:40:49.608Z,2.40
2018-06-28T09:43:18.497Z,2.50
2018-06-28T09:45:48.032Z,2.08
2018-06-28T09:48:16.888Z,2.42
2018-06-28T09:50:45.716Z,2.60
2018-06-28T09:53:14.570Z,2.00
2018-06-28T09:55:43.398Z,2.50
2018-06-28T09:58:12.243Z,2.30
2018-06-28T10:00:41.081Z,2.42
2018-06-28T10:03:10.664Z,2.40
2018-06-28T10:05:39.528Z,2.53
2018-06-28T10:08:08.370Z,2.58
2018-06-28T10:10:37.954Z,2.37
2018-06-28T10:13:07.384Z,2.33
2018-06-28T10:15:36.211Z,2.35
2018-06-28T10:18:05.049Z,2.30
2018-06-28T10:20:33.882Z,2.50
2018-06-28T10:23:02.723Z,2.50
2018-06-28T10:25:32.297Z,2.20
2018-06-28T10:28:01.134Z,2.50
2018-06-28T10:30:30.707Z,2.70
2018-06-28T10:32:59.551Z,2.55
2018-06-28T10:35:28.396Z,2.45
2018-06-28T10:37:57.242Z,2.50
2018-06-28T10:40:26.072Z,2.90
2018-06-28T10:42:54.903Z,2.47
2018-06-28T10:45:23.813Z,2.30
2018-06-28T10:47:53.370Z,2.70
2018-06-28T10:50:22.275Z,2.78
2018-06-28T10:52:51.053Z,2.50
2018-06-28T10:55:19.894Z,2.30
2018-06-28T10:57:48.735Z,2.58
2018-06-28T11:00:18.314Z,2.60
2018-06-28T11:02:47.208Z,2.80
2018-06-28T11:05:16.001Z,2.47
2018-06-28T11:07:44.834Z,2.70
2018-06-28T11:10:13.678Z,2.30
2018-06-28T11:12:42.512Z,2.50
2018-06-28T11:15:11.362Z,2.50
2018-06-28T11:17:40.200Z,2.55
2018-06-28T11:20:09.038Z,2.40
2018-06-28T11:22:37.879Z,2.22
2018-06-28T11:25:06.739Z,2.30
2018-06-28T11:27:36.314Z,2.47
2018-06-28T11:30:05.172Z,2.33
2018-06-28T11:32:34.006Z,2.67
2018-06-28T11:35:02.851Z,2.40
2018-06-28T11:37:31.695Z,2.60
2018-06-28T11:40:00.535Z,2.75
2018-06-28T11:42:29.378Z,2.58
2018-06-28T11:44:58.218Z,2.78
2018-06-28T11:47:27.067Z,2.70
2018-06-28T11:49:56.712Z,2.28
2018-06-28T11:52:25.558Z,2.33
2018-06-28T11:54:54.382Z,2.20
2018-06-28T11:57:23.213Z,2.42
2018-06-28T11:59:52.638Z,2.40
2018-06-28T12:02:21.485Z,2.30
2018-06-28T12:04:50.325Z,2.40
2018-06-28T12:07:19.206Z,2.50
2018-06-28T12:09:48.033Z,1.98
2018-06-28T12:12:16.886Z,2.47
2018-06-28T12:14:45.729Z,2.65
2018-06-28T12:17:14.567Z,2.58
2018-06-28T12:19:44.147Z,2.80
2018-06-28T12:22:12.982Z,2.20
2018-06-28T12:24:41.827Z,2.70
2018-06-28T12:27:10.675Z,2.60
2018-06-28T12:29:39.525Z,2.65
2018-06-28T12:32:08.380Z,2.62
2018-06-28T12:34:37.215Z,2.80
2018-06-28T12:37:06.065Z,2.55
2018-06-28T12:39:34.898Z,2.25
2018-06-28T12:42:03.816Z,2.60
2018-06-28T12:44:32.625Z,2.70
2018-06-28T12:47:01.474Z,2.75
2018-06-28T12:49:31.041Z,2.70
2018-06-28T12:52:12.454Z,2.90
2018-06-28T12:54:41.147Z,2.65
2018-06-28T12:57:09.979Z,2.70
2018-06-28T12:59:38.822Z,2.90
2018-06-28T13:02:07.661Z,2.50
2018-06-28T13:04:36.519Z,3.00
2018-06-28T13:07:05.402Z,2.70
2018-06-28T13:09:34.194Z,2.37
2018-06-28T13:12:03.032Z,2.62
2018-06-28T13:14:31.927Z,2.62
2018-06-28T13:17:00.733Z,2.60
2018-06-28T13:19:29.596Z,2.45
2018-06-28T13:21:58.433Z,2.70
2018-06-28T13:24:27.281Z,2.35
2018-06-28T13:26:56.146Z,2.28
2018-06-28T13:29:24.985Z,2.47
2018-06-28T13:31:53.831Z,2.50
2018-06-28T13:34:22.663Z,2.78
2018-06-28T13:36:52.242Z,2.50
2018-06-28T13:39:21.130Z,2.33
2018-06-28T13:41:49.977Z,2.60
2018-06-28T13:44:19.516Z,2.40
2018-06-28T13:46:48.358Z,2.60
2018-06-28T13:49:17.283Z,2.65
2018-06-28T13:51:46.063Z,2.30
2018-06-28T13:54:14.908Z,2.40
2018-06-28T13:56:43.747Z,2.50
2018-06-28T13:59:12.591Z,2.20
2018-06-28T14:01:41.431Z,2.22
2018-06-28T14:04:10.298Z,2.35
2018-06-28T14:06:39.137Z,2.20
2018-06-28T14:09:07.991Z,2.53
2018-06-28T14:11:36.832Z,2.42
2018-06-28T14:14:06.668Z,2.40
2018-06-28T14:16:35.265Z,2.40
2018-06-28T14:19:04.101Z,2.30
2018-06-28T14:21:33.694Z,2.50
2018-06-28T14:24:02.541Z,2.80
2018-06-28T14:26:31.384Z,2.70
2018-06-28T14:29:00.233Z,2.60
2018-06-28T14:31:29.066Z,2.60
2018-06-28T14:33:57.904Z,2.25
2018-06-28T14:36:26.737Z,2.50
2018-06-28T14:38:56.326Z,2.53
2018-06-28T14:41:25.171Z,2.70
2018-06-28T14:43:54.021Z,2.58
2018-06-28T14:46:22.852Z,2.20
2018-06-28T14:48:51.704Z,2.55
2018-06-28T14:51:21.287Z,2.50
2018-06-28T14:53:50.127Z,2.35
2018-06-28T14:56:18.973Z,2.30
2018-06-28T14:58:47.812Z,2.28
2018-06-28T15:01:16.662Z,2.30
2018-06-28T15:03:46.235Z,2.50
2018-06-28T15:06:15.070Z,2.50
2018-06-28T15:08:44.655Z,2.20
2018-06-28T15:11:13.511Z,2.30
2018-06-28T15:13:42.349Z,2.40
2018-06-28T15:16:11.939Z,2.55
2018-06-28T15:18:40.789Z,2.40
2018-06-28T15:21:09.641Z,2.30
2018-06-28T15:23:39.216Z,2.45
2018-06-28T15:26:08.056Z,2.53
2018-06-28T15:28:36.900Z,2.53
2018-06-28T15:31:05.765Z,2.30
2018-06-28T15:33:34.591Z,2.20
2018-06-28T15:36:03.467Z,2.45
2018-06-28T15:38:32.342Z,2.50
2018-06-28T15:41:01.145Z,2.33
2018-06-28T15:43:29.994Z,2.40
2018-06-28T15:45:59.579Z,2.50
2018-06-28T15:48:28.440Z,2.20
2018-06-28T15:50:57.277Z,2.50
2018-06-28T15:53:26.141Z,2.70
2018-06-28T15:55:55.023Z,2.10
2018-06-28T15:58:23.882Z,2.50
2018-06-28T16:00:53.472Z,2.30
2018-06-28T16:03:22.312Z,2.40
2018-06-28T16:05:51.171Z,2.40
2018-06-28T16:08:20.018Z,2.30
2018-06-28T16:10:48.856Z,2.10
2018-06-28T16:13:18.438Z,1.90
2018-06-28T16:15:47.274Z,2.35
2018-06-28T16:18:16.111Z,2.00
2018-06-28T16:20:44.947Z,2.35
2018-06-28T16:23:14.544Z,2.12
2018-06-28T16:25:44.119Z,2.28
2018-06-28T16:28:12.957Z,2.30
2018-06-28T16:30:41.830Z,2.30
2018-06-28T16:33:10.678Z,2.50
2018-06-28T16:35:39.525Z,1.90
2018-06-28T16:38:09.102Z,2.10
2018-06-28T16:40:37.947Z,3.05
2018-06-28T16:43:06.780Z,2.65
2018-06-28T16:45:35.615Z,2.45
2018-06-28T16:48:05.207Z,2.40
2018-06-28T16:50:34.044Z,2.47
2018-06-28T16:53:02.888Z,2.28
2018-06-28T16:55:31.723Z,2.10
2018-06-28T16:58:00.571Z,2.10
2018-06-28T17:00:30.153Z,2.20
2018-06-28T17:02:58.993Z,2.13
2018-06-28T17:05:27.831Z,2.10
2018-06-28T17:07:56.665Z,1.90
2018-06-28T17:10:25.501Z,1.95
2018-06-28T17:12:54.346Z,2.05
2018-06-28T17:15:23.190Z,2.12
2018-06-28T17:17:52.024Z,2.20
2018-06-28T17:20:21.705Z,2.12
2018-06-28T17:22:51.027Z,1.90
2018-06-28T17:25:19.884Z,2.12
2018-06-28T17:27:48.728Z,2.20
2018-06-28T17:30:17.574Z,2.10
2018-06-28T17:32:46.426Z,2.10
2018-06-28T17:35:15.246Z,1.98
2018-06-28T17:37:44.086Z,2.10
2018-06-28T17:40:13.044Z,2.10
2018-06-28T17:42:41.888Z,2.22
2018-06-28T17:45:10.651Z,2.22
2018-06-28T17:47:39.499Z,2.00
2018-06-28T17:50:08.333Z,2.20
2018-06-28T17:52:37.244Z,2.42
2018-06-28T17:55:06.005Z,2.42
2018-06-28T17:57:34.923Z,2.20
2018-06-28T18:00:03.691Z,2.28
2018-06-28T18:02:32.535Z,2.28
2018-06-28T18:05:01.464Z,2.37
2018-06-28T18:07:30.216Z,2.50
2018-06-28T18:09:59.061Z,2.60
2018-06-28T18:12:27.915Z,2.60
2018-06-28T18:14:57.512Z,2.40
2018-06-28T18:17:26.375Z,2.33
2018-06-28T18:19:55.214Z,2.53
2018-06-28T18:22:24.806Z,2.70
2018-06-28T18:24:54.390Z,2.97
2018-06-28T18:27:23.237Z,3.65
2018-06-28T18:29:52.082Z,3.10
2018-06-28T18:32:20.920Z,3.33
2018-06-28T18:34:49.777Z,3.65
2018-06-28T18:37:18.628Z,3.22
2018-06-28T18:39:47.520Z,3.75
2018-06-28T18:42:16.338Z,3.50
2018-06-28T18:44:45.212Z,3.05
2018-06-28T18:47:14.803Z,3.45
2018-06-28T18:49:43.701Z,3.17
2018-06-28T18:52:12.499Z,3.60
2018-06-28T18:54:42.103Z,3.30
2018-06-28T18:57:10.964Z,3.22
2018-06-28T18:59:39.809Z,3.72
2018-06-28T19:02:08.657Z,3.40
2018-06-28T19:04:37.499Z,3.70
2018-06-28T19:07:06.376Z,3.33
2018-06-28T19:09:35.184Z,3.37
2018-06-28T19:12:04.041Z,3.65
2018-06-28T19:14:38.761Z,3.40
2018-06-28T19:17:07.595Z,2.90
2018-06-28T19:19:36.441Z,3.50
2018-06-28T19:22:08.172Z,3.15
2018-06-28T19:24:37.040Z,3.40
2018-06-28T19:27:05.875Z,3.62
2018-06-28T19:29:34.770Z,3.10
2018-06-28T19:32:05.498Z,3.22
2018-06-28T19:34:34.345Z,2.90
2018-06-28T19:37:03.205Z,3.10
2018-06-28T19:39:32.030Z,3.20
2018-06-28T19:42:00.992Z,2.65
2018-06-28T19:44:30.574Z,3.58
2018-06-28T19:46:59.450Z,3.30
2018-06-28T19:49:28.281Z,3.90
2018-06-28T19:52:00.059Z,3.35
2018-06-28T19:54:28.946Z,3.40
2018-06-28T19:56:57.758Z,3.80
2018-06-28T19:59:27.399Z,3.55
2018-06-28T20:01:59.945Z,3.45
2018-06-28T20:04:28.798Z,3.30
2018-06-28T20:06:57.637Z,3.72
2018-06-28T20:09:27.217Z,3.47
2018-06-28T20:11:56.067Z,3.20
2018-06-28T20:14:24.950Z,3.40
2018-06-28T20:16:59.982Z,3.22
2018-06-28T20:19:29.719Z,3.15
2018-06-28T20:21:58.754Z,3.60
2018-06-28T20:24:28.189Z,3.60
2018-06-28T20:26:57.792Z,3.30
2018-06-28T20:29:32.618Z,3.50
2018-06-28T20:32:01.511Z,3.05
2018-06-28T20:34:30.355Z,3.40
2018-06-28T20:36:59.190Z,3.70
2018-06-28T20:39:28.203Z,3.30
2018-06-28T20:41:56.871Z,3.60
2018-06-28T20:44:25.723Z,3.37
2018-06-28T20:46:54.567Z,3.80
2018-06-28T20:49:23.405Z,4.00
2018-06-28T20:51:52.241Z,3.20
2018-06-28T20:54:21.130Z,3.70
2018-06-28T20:56:49.935Z,3.85
2018-06-28T20:59:19.536Z,3.40
2018-06-28T21:01:48.372Z,3.47
2018-06-28T21:04:17.220Z,3.65
2018-06-28T21:06:46.740Z,3.60
2018-06-28T21:09:15.546Z,3.67
2018-06-28T21:11:44.386Z,4.00
2018-06-28T21:14:13.214Z,4.05
2018-06-28T21:16:42.138Z,3.60
2018-06-28T21:19:10.908Z,3.92
2018-06-28T21:21:39.743Z,3.67
2018-06-28T21:24:08.576Z,4.00
2018-06-28T21:26:37.474Z,3.70
2018-06-28T21:29:06.274Z,4.10
2018-06-28T21:31:35.104Z,4.30
2018-06-28T21:34:03.956Z,4.30
2018-06-28T21:36:32.858Z,4.53
2018-06-28T21:39:01.660Z,4.15
2018-06-28T21:41:30.501Z,4.40
2018-06-28T21:43:59.348Z,3.85
2018-06-28T21:46:28.182Z,4.37
2018-06-28T21:48:57.057Z,3.60
2018-06-28T21:51:25.913Z,4.40
2018-06-28T21:53:54.756Z,4.25
2018-06-28T21:56:23.614Z,4.28
2018-06-28T21:58:52.496Z,4.32
2018-06-28T22:01:21.341Z,3.80
2018-06-28T22:03:50.189Z,4.22
2018-06-28T22:06:19.018Z,4.05
2018-06-28T22:08:47.869Z,3.80
2018-06-28T22:11:16.714Z,4.80
2018-06-28T22:13:45.547Z,3.97
2018-06-28T22:16:14.392Z,4.40
2018-06-28T22:18:43.228Z,4.10
2018-06-28T22:21:12.075Z,4.60
2018-06-28T22:23:41.659Z,4.75
2018-06-28T22:26:10.591Z,4.50
2018-06-28T22:28:39.353Z,3.95
2018-06-28T22:31:08.282Z,4.22
2018-06-28T22:33:37.039Z,4.87
2018-06-28T22:36:05.903Z,4.12
2018-06-28T22:38:34.734Z,4.30
2018-06-28T22:41:04.310Z,4.85
2018-06-28T22:43:33.149Z,4.25
2018-06-28T22:46:01.995Z,4.00
2018-06-28T22:48:30.842Z,3.90
2018-06-28T22:50:59.688Z,4.20
2018-06-28T22:53:28.529Z,3.78
2018-06-28T22:55:57.377Z,4.47
2018-06-28T22:58:26.209Z,4.35
2018-06-28T23:00:55.059Z,4.37
2018-06-28T23:03:23.894Z,3.70
2018-06-28T23:05:52.741Z,3.90
2018-06-28T23:08:22.160Z,4.53
2018-06-28T23:10:51.749Z,4.32
2018-06-28T23:13:21.337Z,4.40
2018-06-28T23:15:50.177Z,4.22
2018-06-28T23:18:19.759Z,3.80
2018-06-28T23:20:49.246Z,4.03
2018-06-28T23:23:18.077Z,4.20
2018-06-28T23:25:47.662Z,4.15
2018-06-28T23:28:16.503Z,3.92
2018-06-28T23:30:45.335Z,4.15
2018-06-28T23:33:14.179Z,4.43
2018-06-28T23:35:43.023Z,3.55
2018-06-28T23:38:11.865Z,4.22
2018-06-28T23:40:40.706Z,4.28
2018-06-28T23:43:10.286Z,4.40
2018-06-28T23:45:39.135Z,4.78
2018-06-28T23:48:07.984Z,4.45
2018-06-28T23:50:36.819Z,4.22
2018-06-28T23:53:05.658Z,4.20
2018-06-28T23:55:34.517Z,4.37
2018-06-28T23:58:03.346Z,4.90
